Irini — SYZA — position and weather

sailwx.info

Track history (hours):
 
Tides and Currents Weather Stations Pressure Air Temp Water Temp Dewpoint Dewpoint Depression Visibility Wind Speed Wind Dir Waves Ship Positions

Irini

Last reported at 2015-Apr-27 05:26 UTC. Time now 2015-Apr-28 05:15 UTC.
Position N 38°02' E 023°36'.

Length 137 m; draft 7.2 m.

Type: Ship (hazmat cat A). MMSI: 240052000.

Date/timePositionNaut miles runAvg speedWind from/ knotsBaromVisibWave heightAir tempDewpointWater temp
2015-Apr-27 05:26N 38°02' E 023°36'5 5.2
2015-Apr-27 04:33N 37°57' E 023°34'2 2.3
2015-Apr-27 03:33N 37°55' E 023°35'1 0.7
2015-Apr-27 02:28N 37°54' E 023°34'0 0.0
2015-Apr-27 01:28N 37°54' E 023°34'0 0.0
2015-Apr-27 00:28N 37°54' E 023°34'1 0.6
2015-Apr-26 23:33N 37°54' E 023°34'8 7.8
2015-Apr-26 22:33N 37°48' E 023°40'1111.2
2015-Apr-26 21:33N 37°39' E 023°49'1311.3
2015-Apr-26 20:24N 37°37' E 024°05'1111.9
2015-Apr-26 19:29N 37°44' E 024°16'  
2015-Apr-21 22:05N 37°54' E 024°34'810.8
2015-Apr-21 21:18N 37°49' E 024°25'2011.0
2015-Apr-21 19:31N 37°36' E 024°07'1111.3
2015-Apr-21 18:33N 37°37' E 023°53'1110.9
2015-Apr-21 17:33N 37°42' E 023°41'1111.4
2015-Apr-21 16:33N 37°53' E 023°37'8 8.0
2015-Apr-21 15:33N 38°00' E 023°33'2 2.1
2015-Apr-21 14:31N 38°02' E 023°31'0 0.0
2015-Apr-21 13:28N 38°02' E 023°31'0 0.0
2015-Apr-21 12:31N 38°02' E 023°31'0 0.0
2015-Apr-21 11:31N 38°02' E 023°31'0 0.0
2015-Apr-21 10:31N 38°02' E 023°31'0 0.0
2015-Apr-21 09:28N 38°02' E 023°31'0 0.0
2015-Apr-21 07:31N 38°02' E 023°31'0 0.0
2015-Apr-21 06:31N 38°02' E 023°31'0 0.0
2015-Apr-21 05:31N 38°02' E 023°31'0 0.0
2015-Apr-21 04:19N 38°02' E 023°31'0 0.0
2015-Apr-21 03:31N 38°02' E 023°31'0 0.0
2015-Apr-21 02:31N 38°02' E 023°31'0 0.0
2015-Apr-21 01:31N 38°02' E 023°31'0 0.0
2015-Apr-21 00:22N 38°02' E 023°31'0 0.0
2015-Apr-20 23:31N 38°02' E 023°31'0 0.0
2015-Apr-20 22:31N 38°02' E 023°31'0 0.0
2015-Apr-20 21:31N 38°02' E 023°31'1 1.2
2015-Apr-20 20:33N 38°01' E 023°32'1 0.0
2015-Apr-19 09:28N 38°01' E 023°33'7 7.8
2015-Apr-19 08:33N 37°54' E 023°36'1111.0
2015-Apr-19 07:33N 37°45' E 023°42'55 7.6
2015-Apr-19 00:22N 38°27' E 024°26'  
Track history (hours):
 
Tides and Currents Weather Stations Pressure Air Temp Water Temp Dewpoint Dewpoint Depression Visibility Wind Speed Wind Dir Waves Ship Positions

Irini

Last reported at 2015-Apr-27 05:26 UTC. Time now 2015-Apr-28 05:16 UTC.
Position N 38°02' E 023°36'.

Length 137 m; draft 7.2 m.

Type: Ship (hazmat cat A). MMSI: 240052000.

Date/timePositionNaut miles runAvg speedWind from/ knotsBaromVisibWave heightAir tempDewpointWater temp
2015-Apr-27 05:26N 38°02' E 023°36'5 5.2
2015-Apr-27 04:33N 37°57' E 023°34'2 2.3
2015-Apr-27 03:33N 37°55' E 023°35'1 0.7
2015-Apr-27 02:28N 37°54' E 023°34'0 0.0
2015-Apr-27 01:28N 37°54' E 023°34'0 0.0
2015-Apr-27 00:28N 37°54' E 023°34'1 0.6
2015-Apr-26 23:33N 37°54' E 023°34'8 7.8
2015-Apr-26 22:33N 37°48' E 023°40'1111.2
2015-Apr-26 21:33N 37°39' E 023°49'1311.3
2015-Apr-26 20:24N 37°37' E 024°05'1111.9
2015-Apr-26 19:29N 37°44' E 024°16'  
2015-Apr-21 22:05N 37°54' E 024°34'810.8
2015-Apr-21 21:18N 37°49' E 024°25'2011.0
2015-Apr-21 19:31N 37°36' E 024°07'1111.3
2015-Apr-21 18:33N 37°37' E 023°53'1110.9
2015-Apr-21 17:33N 37°42' E 023°41'1111.4
2015-Apr-21 16:33N 37°53' E 023°37'8 8.0
2015-Apr-21 15:33N 38°00' E 023°33'2 2.1
2015-Apr-21 14:31N 38°02' E 023°31'0 0.0
2015-Apr-21 13:28N 38°02' E 023°31'0 0.0
2015-Apr-21 12:31N 38°02' E 023°31'0 0.0
2015-Apr-21 11:31N 38°02' E 023°31'0 0.0
2015-Apr-21 10:31N 38°02' E 023°31'0 0.0
2015-Apr-21 09:28N 38°02' E 023°31'0 0.0
2015-Apr-21 07:31N 38°02' E 023°31'0 0.0
2015-Apr-21 06:31N 38°02' E 023°31'0 0.0
2015-Apr-21 05:31N 38°02' E 023°31'0 0.0
2015-Apr-21 04:19N 38°02' E 023°31'0 0.0
2015-Apr-21 03:31N 38°02' E 023°31'0 0.0
2015-Apr-21 02:31N 38°02' E 023°31'0 0.0
2015-Apr-21 01:31N 38°02' E 023°31'0 0.0
2015-Apr-21 00:22N 38°02' E 023°31'0 0.0
2015-Apr-20 23:31N 38°02' E 023°31'0 0.0
2015-Apr-20 22:31N 38°02' E 023°31'0 0.0
2015-Apr-20 21:31N 38°02' E 023°31'1 1.2
2015-Apr-20 20:33N 38°01' E 023°32'1 0.0
2015-Apr-19 09:28N 38°01' E 023°33'7 7.8
2015-Apr-19 08:33N 37°54' E 023°36'1111.0
2015-Apr-19 07:33N 37°45' E 023°42'55 7.6
2015-Apr-19 00:22N 38°27' E 024°26'  

Dump ship's entire track history